KLRU/LRU METAR and TAF weather

Enter ICAO airport designator
Station Type Date Time Source
KLRU METAR 2021/09/25 12:15 UTC NOAA

KLRU 251215Z AUTO 05005KT 10SM CLR 18/10 A3017 RMK AO2 T01770103


Station Type Date Time Source
KLRU Decoded METAR 2021/09/25 12:15 UTC NOAA

Las Cruces, Las Cruces International Airport, NM, United States (KLRU) 32-17-22N 106-55-19W
Sep 25, 2021 - 08:15 AM EDT / 2021.09.25 1215 UTC
Wind: from the NE (050 degrees) at 6 MPH (5 KT):0
Visibility: 10 mile(s):0
Sky conditions: clear
Temperature: 63.9 F (17.7 C)
Dew Point: 50.5 F (10.3 C)
Relative Humidity: 61%
Pressure (altimeter): 30.17 in. Hg (1021 hPa)
ob: KLRU 251215Z AUTO 05005KT 10SM CLR 18/10 A3017 RMK AO2 T01770103
cycle: 12

Station Type Date Time Source
KLRU TAF 2021/09/25 12:36 UTC NOAA

TAF KLRU 251135Z 2512/2612 05004KT P6SM SKC
FM251800 14010KT P6SM OVC100

Example: see airport list